Morehead, Kansas
Current Conditions -  °F | °C
As of 6:52 AM on Thursday 30 Oct 2014 (Local Time) from KPPF Reporting Station
Few Clouds Few Clouds  
Wind Chill: 45°   Ceiling: Unl
Heat Index: 48°   Visibility: 10mi
Dew Point: 42°   Wind: 7mph
Humidity: 80%   Direction: 190°S
Pressure: 30.07"   Gusts: NA
Location:  37.4373°N, 95.4594°W
Report Text: KPPF 301152Z AUTO 19006KT 10SM FEW100 09/06 A3007 RMK AO2 SLP181 T00890056 10094 20056 56006
Loading
Personal Weather Stations






























Interactive Weather Map
Tropical Storm Tracking
New forecast layout! Learn more

10-Day Weather Forecast

Advertisements
Track Severe Weather on mobile